createdAt,value
2022-10-16T00:03:03.636Z,92.59
2022-10-16T00:05:30.480Z,92.75
2022-10-16T00:07:56.886Z,92.81
2022-10-16T00:10:23.857Z,92.70
2022-10-16T00:17:42.926Z,92.31
2022-10-16T00:20:09.375Z,92.40
2022-10-16T00:22:35.700Z,92.43
2022-10-16T00:25:02.026Z,92.40
2022-10-16T00:27:28.321Z,92.58
2022-10-16T00:29:54.777Z,92.54
2022-10-16T00:37:14.434Z,92.10
2022-10-16T00:42:07.027Z,92.09
2022-10-16T00:44:53.481Z,92.13
2022-10-16T00:47:25.300Z,91.99
2022-10-16T00:59:46.684Z,91.67
2022-10-16T01:02:15.729Z,91.90
2022-10-16T01:07:31.049Z,91.78
2022-10-16T01:12:38.811Z,91.41
2022-10-16T01:15:22.849Z,91.52
2022-10-16T01:17:58.597Z,91.53
2022-10-16T01:23:26.438Z,91.67
2022-10-16T01:26:20.683Z,91.77
2022-10-16T01:29:03.967Z,91.73
2022-10-16T01:31:34.468Z,91.84
2022-10-16T01:34:10.577Z,91.78
2022-10-16T01:36:42.943Z,91.68
2022-10-16T01:39:11.773Z,91.41
2022-10-16T01:41:44.326Z,91.49
2022-10-16T01:44:33.277Z,91.65
2022-10-16T01:47:00.808Z,91.28
2022-10-16T01:49:32.553Z,91.11
2022-10-16T01:52:02.928Z,90.94
2022-10-16T01:54:32.501Z,90.97
2022-10-16T01:56:59.842Z,90.95
2022-10-16T02:02:00.412Z,91.19
2022-10-16T02:04:39.001Z,91.08
2022-10-16T02:14:30.381Z,91.28
2022-10-16T02:16:56.762Z,91.11
2022-10-16T02:21:57.750Z,91.15
2022-10-16T02:27:16.200Z,91.38
2022-10-16T02:32:18.773Z,91.41
2022-10-16T02:34:46.526Z,91.26
2022-10-16T02:37:13.577Z,91.41
2022-10-16T02:39:41.547Z,91.49
2022-10-16T02:42:14.796Z,91.46
2022-10-16T02:44:41.277Z,91.22
2022-10-16T02:47:07.734Z,91.14
2022-10-16T02:52:00.316Z,91.34
2022-10-16T02:59:19.141Z,91.10
2022-10-16T03:04:11.906Z,90.95
2022-10-16T03:06:38.214Z,91.30
2022-10-16T03:09:04.521Z,90.94
2022-10-16T03:11:30.834Z,90.79
2022-10-16T03:16:23.417Z,90.17
2022-10-16T03:23:43.504Z,89.97
2022-10-16T03:28:36.090Z,89.74
2022-10-16T03:31:02.602Z,89.65
2022-10-16T03:33:28.922Z,89.39
2022-10-16T03:35:55.753Z,89.26
2022-10-16T03:38:22.550Z,89.22
2022-10-16T03:40:49.137Z,88.76
2022-10-16T03:45:46.708Z,88.60
2022-10-16T03:48:13.004Z,88.00
2022-10-16T03:50:39.461Z,88.04
2022-10-16T03:53:06.817Z,87.72
2022-10-16T03:57:59.464Z,87.52
2022-10-16T04:00:25.972Z,87.36
2022-10-16T04:02:52.335Z,87.01
2022-10-16T04:10:11.248Z,87.78
2022-10-16T04:12:37.599Z,87.91
2022-10-16T04:15:04.093Z,87.54
2022-10-16T04:17:30.608Z,87.67
2022-10-16T04:22:23.435Z,87.23
2022-10-16T04:29:42.249Z,87.33
2022-10-16T04:34:39.074Z,87.85
2022-10-16T04:37:05.378Z,87.82
2022-10-16T04:49:20.008Z,87.81
2022-10-16T04:51:46.311Z,88.07
2022-10-16T04:54:12.826Z,87.63
2022-10-16T04:56:46.949Z,87.65
2022-10-16T05:01:40.213Z,88.22
2022-10-16T05:06:32.901Z,88.33
2022-10-16T05:08:59.225Z,88.32
2022-10-16T05:16:22.382Z,88.27
2022-10-16T05:18:52.993Z,88.36
2022-10-16T05:21:19.772Z,88.44
2022-10-16T05:23:46.062Z,88.62
2022-10-16T05:26:12.537Z,88.39
2022-10-16T05:31:09.435Z,88.66
2022-10-16T05:33:35.863Z,88.63
2022-10-16T05:36:08.260Z,88.63
2022-10-16T05:41:01.855Z,88.79
2022-10-16T05:43:29.348Z,88.74
2022-10-16T05:48:23.413Z,88.93
2022-10-16T05:50:56.621Z,88.88
2022-10-16T05:53:26.343Z,88.76
2022-10-16T05:55:54.020Z,88.31
2022-10-16T05:58:20.924Z,88.32
2022-10-16T06:08:12.522Z,88.37
2022-10-16T06:15:31.387Z,88.46
2022-10-16T06:17:57.693Z,88.67
2022-10-16T06:22:50.277Z,88.89
2022-10-16T06:25:16.598Z,88.36
2022-10-16T06:27:42.919Z,88.59
2022-10-16T06:30:09.757Z,88.44
2022-10-16T06:32:36.069Z,88.47
2022-10-16T06:35:02.375Z,88.83
2022-10-16T06:37:28.883Z,88.81
2022-10-16T06:42:21.705Z,88.36
2022-10-16T06:44:48.175Z,88.54
2022-10-16T06:47:14.488Z,88.62
2022-10-16T06:49:40.801Z,88.67
2022-10-16T06:52:07.141Z,88.88
2022-10-16T06:59:35.006Z,88.75
2022-10-16T07:02:01.310Z,88.44
2022-10-16T07:04:27.685Z,88.61
2022-10-16T07:09:20.284Z,88.58
2022-10-16T07:11:46.622Z,88.40
2022-10-16T07:16:49.065Z,88.05
2022-10-16T07:19:16.396Z,87.92
2022-10-16T07:21:43.166Z,87.94
2022-10-16T07:26:41.904Z,88.38
2022-10-16T07:29:14.367Z,88.20
2022-10-16T07:39:00.458Z,89.15
2022-10-16T07:43:53.994Z,88.20
2022-10-16T07:46:22.154Z,88.28
2022-10-16T07:48:49.322Z,88.21
2022-10-16T07:51:18.043Z,87.82
2022-10-16T07:53:44.593Z,87.28
2022-10-16T07:56:12.612Z,86.35
2022-10-16T07:58:39.140Z,86.11
2022-10-16T08:01:07.936Z,86.25
2022-10-16T08:03:34.668Z,86.06
2022-10-16T08:06:02.477Z,85.26
2022-10-16T08:10:55.407Z,85.49
2022-10-16T08:13:21.945Z,85.24
2022-10-16T08:15:48.433Z,84.38
2022-10-16T08:18:16.207Z,83.77
2022-10-16T08:23:13.964Z,83.22
2022-10-16T08:25:41.477Z,83.48
2022-10-16T08:28:10.171Z,83.11
2022-10-16T08:30:36.893Z,82.10
2022-10-16T08:33:03.600Z,82.35
2022-10-16T08:35:30.017Z,80.91
2022-10-16T08:37:56.334Z,81.75
2022-10-16T08:43:08.001Z,81.24
2022-10-16T08:45:59.217Z,81.40
2022-10-16T08:50:57.678Z,82.53
2022-10-16T08:55:54.406Z,80.90
2022-10-16T08:58:23.549Z,81.63
2022-10-16T09:00:58.354Z,81.33
2022-10-16T09:03:58.447Z,81.12
2022-10-16T09:06:41.378Z,80.67
2022-10-16T09:14:16.867Z,78.66
2022-10-16T09:16:53.214Z,80.77
2022-10-16T09:19:37.787Z,79.24
2022-10-16T09:24:38.009Z,79.29
2022-10-16T09:27:04.309Z,78.19
2022-10-16T09:29:30.620Z,78.61
2022-10-16T09:34:34.285Z,77.78
2022-10-16T09:37:04.949Z,79.20
2022-10-16T09:39:31.344Z,76.85
2022-10-16T09:41:57.861Z,76.84
2022-10-16T09:44:28.613Z,76.89
2022-10-16T09:52:12.793Z,76.34
2022-10-16T09:57:16.341Z,77.22
2022-10-16T09:59:51.250Z,77.94
2022-10-16T10:02:24.171Z,77.05
2022-10-16T10:04:55.284Z,76.25
2022-10-16T10:07:34.008Z,74.82
2022-10-16T10:10:02.273Z,76.31
2022-10-16T10:12:31.654Z,76.34
2022-10-16T10:15:04.295Z,76.10
2022-10-16T10:17:31.225Z,76.02
2022-10-16T10:19:59.499Z,77.30
2022-10-16T10:22:46.577Z,75.49
2022-10-16T10:30:24.533Z,74.97
2022-10-16T10:35:50.673Z,72.91
2022-10-16T10:38:23.632Z,74.83
2022-10-16T10:44:05.137Z,74.38
2022-10-16T10:47:17.495Z,75.20
2022-10-16T10:52:32.685Z,75.35
2022-10-16T10:55:11.603Z,74.83
2022-10-16T11:00:57.672Z,74.21
2022-10-16T11:06:27.525Z,72.41
2022-10-16T11:09:01.393Z,71.64
2022-10-16T11:11:39.259Z,72.41
2022-10-16T11:14:11.443Z,70.68
2022-10-16T11:19:34.607Z,70.66
2022-10-16T11:22:18.058Z,71.66
2022-10-16T11:25:06.383Z,70.14
2022-10-16T11:27:45.982Z,68.88
2022-10-16T11:30:34.870Z,71.74
2022-10-16T11:35:54.482Z,68.45
2022-10-16T11:38:38.864Z,69.44
2022-10-16T11:44:11.570Z,67.12
2022-10-16T11:46:58.291Z,67.78
2022-10-16T11:52:07.367Z,67.40
2022-10-16T11:54:44.868Z,67.47
2022-10-16T11:57:21.543Z,67.61
2022-10-16T11:59:47.936Z,67.42
2022-10-16T12:02:32.875Z,68.00
2022-10-16T12:05:36.762Z,68.01
2022-10-16T12:08:11.825Z,68.64
2022-10-16T12:10:40.582Z,70.25
2022-10-16T12:13:31.688Z,69.27
2022-10-16T12:16:13.265Z,68.37
2022-10-16T12:18:41.823Z,67.26
2022-10-16T12:21:09.388Z,67.68
2022-10-16T12:23:48.204Z,67.96
2022-10-16T12:26:14.735Z,65.42
2022-10-16T12:28:41.613Z,65.81
2022-10-16T12:31:10.952Z,66.83
2022-10-16T12:33:40.868Z,67.09
2022-10-16T12:36:36.301Z,68.94
2022-10-16T12:39:03.475Z,67.56
2022-10-16T12:41:35.602Z,67.53
2022-10-16T12:44:03.133Z,68.02
2022-10-16T12:46:29.449Z,68.14
2022-10-16T12:49:08.114Z,67.86
2022-10-16T12:51:37.653Z,69.75
2022-10-16T12:54:12.616Z,68.04
2022-10-16T12:59:38.803Z,68.55
2022-10-16T13:04:52.772Z,65.35
2022-10-16T13:07:39.398Z,66.48
2022-10-16T13:13:02.219Z,68.45
2022-10-16T13:15:41.542Z,67.75
2022-10-16T13:18:25.433Z,67.85
2022-10-16T13:20:54.843Z,67.56
2022-10-16T13:23:37.545Z,67.39
2022-10-16T13:26:23.030Z,66.77
2022-10-16T13:28:49.799Z,67.82
2022-10-16T13:33:51.565Z,69.53
2022-10-16T13:39:21.506Z,67.20
2022-10-16T13:42:02.508Z,66.97
2022-10-16T13:44:38.140Z,66.71
2022-10-16T13:47:04.499Z,67.70
2022-10-16T13:49:30.867Z,67.45
2022-10-16T13:54:27.594Z,65.83
2022-10-16T13:59:39.620Z,66.81
2022-10-16T14:04:44.492Z,67.23
2022-10-16T14:07:26.384Z,67.90
2022-10-16T14:09:54.207Z,66.95
2022-10-16T14:14:56.636Z,68.19
2022-10-16T14:17:24.931Z,67.66
2022-10-16T14:19:58.514Z,67.90
2022-10-16T14:22:33.466Z,66.61
2022-10-16T14:25:00.003Z,66.97
2022-10-16T14:27:34.913Z,66.76
2022-10-16T14:33:05.109Z,67.75
2022-10-16T14:38:01.058Z,67.42
2022-10-16T14:40:31.413Z,67.95
2022-10-16T14:42:58.667Z,68.38
2022-10-16T14:50:21.167Z,67.77
2022-10-16T14:52:47.578Z,69.60
2022-10-16T14:55:14.040Z,69.98
2022-10-16T14:57:40.870Z,69.52
2022-10-16T15:00:17.855Z,68.97
2022-10-16T15:02:44.983Z,67.48
2022-10-16T15:05:13.424Z,68.03
2022-10-16T15:07:39.757Z,68.76
2022-10-16T15:10:06.350Z,68.47
2022-10-16T15:12:33.210Z,68.96
2022-10-16T15:17:26.089Z,69.42
2022-10-16T15:19:52.850Z,69.52
2022-10-16T15:24:45.707Z,71.45
2022-10-16T15:27:12.289Z,71.73
2022-10-16T15:29:38.600Z,71.95
2022-10-16T15:34:31.247Z,72.88
2022-10-16T15:36:58.775Z,73.76
2022-10-16T15:39:25.129Z,74.31
2022-10-16T15:41:52.208Z,74.72
2022-10-16T15:46:45.214Z,75.53
2022-10-16T15:49:12.437Z,75.71
2022-10-16T15:54:06.025Z,76.12
2022-10-16T15:56:34.148Z,75.93
2022-10-16T15:59:02.740Z,76.12
2022-10-16T16:06:26.455Z,76.47
2022-10-16T16:08:52.910Z,76.45
2022-10-16T16:11:20.486Z,76.44
2022-10-16T16:13:47.010Z,76.52
2022-10-16T16:16:15.567Z,77.10
2022-10-16T16:18:43.073Z,77.29
2022-10-16T16:21:12.863Z,77.33
2022-10-16T16:28:39.089Z,77.83
2022-10-16T16:31:05.760Z,78.06
2022-10-16T16:33:32.515Z,78.19
2022-10-16T16:38:27.033Z,78.36
2022-10-16T16:45:53.711Z,79.18
2022-10-16T16:48:20.630Z,79.34
2022-10-16T16:53:13.359Z,79.83
2022-10-16T16:55:40.050Z,79.90
2022-10-16T17:05:25.795Z,80.74
2022-10-16T17:10:18.600Z,80.88
2022-10-16T17:12:44.961Z,81.28
2022-10-16T17:15:11.382Z,80.99
2022-10-16T17:17:37.853Z,80.93
2022-10-16T17:20:04.466Z,81.01
2022-10-16T17:22:31.018Z,81.08
2022-10-16T17:34:47.785Z,80.65
2022-10-16T17:37:17.238Z,80.40
2022-10-16T17:39:44.579Z,80.60
2022-10-16T17:44:37.205Z,80.45
2022-10-16T17:47:03.566Z,80.40
2022-10-16T17:51:57.025Z,80.57
2022-10-16T17:54:23.603Z,80.96
2022-10-16T17:56:50.055Z,81.17
2022-10-16T17:59:16.539Z,80.91
2022-10-16T18:01:45.824Z,80.92
2022-10-16T18:04:15.563Z,80.54
2022-10-16T18:14:04.376Z,80.11
2022-10-16T18:16:31.466Z,79.95
2022-10-16T18:18:58.984Z,80.41
2022-10-16T18:21:27.404Z,80.30
2022-10-16T18:23:54.318Z,80.68
2022-10-16T18:26:21.757Z,80.82
2022-10-16T18:28:48.312Z,80.76
2022-10-16T18:31:17.509Z,81.17
2022-10-16T18:33:48.454Z,81.23
2022-10-16T18:38:41.854Z,82.04
2022-10-16T18:41:08.383Z,81.98
2022-10-16T18:43:37.287Z,82.10
2022-10-16T18:48:35.224Z,82.28
2022-10-16T18:53:34.698Z,82.74
2022-10-16T18:56:01.051Z,83.01
2022-10-16T18:58:27.406Z,82.91
2022-10-16T19:03:20.281Z,83.00
2022-10-16T19:05:46.639Z,83.11
2022-10-16T19:08:14.697Z,83.01
2022-10-16T19:10:44.553Z,83.13
2022-10-16T19:13:11.197Z,83.26
2022-10-16T19:20:33.733Z,83.16
2022-10-16T19:25:27.973Z,83.65
2022-10-16T19:30:23.009Z,84.33
2022-10-16T19:32:50.294Z,84.93
2022-10-16T19:35:16.742Z,85.69
2022-10-16T19:40:10.005Z,87.33
2022-10-16T19:42:36.339Z,88.86
2022-10-16T19:47:28.941Z,89.75
2022-10-16T19:49:55.259Z,90.09
2022-10-16T19:52:24.563Z,90.22
2022-10-16T19:54:51.090Z,90.82
2022-10-16T19:59:45.689Z,91.48
2022-10-16T20:02:12.322Z,91.33
2022-10-16T20:04:38.722Z,91.68
2022-10-16T20:07:05.749Z,91.89
2022-10-16T20:09:33.148Z,91.99
2022-10-16T20:11:59.475Z,92.27
2022-10-16T20:14:25.830Z,92.38
2022-10-16T20:19:19.805Z,92.97
2022-10-16T20:21:46.141Z,93.27
2022-10-16T20:24:12.460Z,94.02
2022-10-16T20:26:38.880Z,93.67
2022-10-16T20:31:33.634Z,94.36
2022-10-16T20:34:06.783Z,94.37
2022-10-16T20:36:34.781Z,94.62
2022-10-16T20:39:02.129Z,95.04
2022-10-16T20:41:28.567Z,95.10
2022-10-16T20:43:55.712Z,95.38
2022-10-16T20:46:24.164Z,95.81
2022-10-16T20:48:51.506Z,95.90
2022-10-16T20:56:17.867Z,96.32
2022-10-16T20:58:45.437Z,96.43
2022-10-16T21:01:19.848Z,96.51
2022-10-16T21:03:54.210Z,96.46
2022-10-16T21:06:21.623Z,96.73
2022-10-16T21:08:48.513Z,96.88
2022-10-16T21:11:24.101Z,96.97
2022-10-16T21:13:55.298Z,96.93
2022-10-16T21:16:22.061Z,96.99
2022-10-16T21:18:48.836Z,97.15
2022-10-16T21:21:29.110Z,97.42
2022-10-16T21:23:57.603Z,97.60
2022-10-16T21:26:28.244Z,97.60
2022-10-16T21:31:24.088Z,97.79
2022-10-16T21:33:51.217Z,97.78
2022-10-16T21:36:20.339Z,97.81
2022-10-16T21:43:45.249Z,97.71
2022-10-16T21:46:11.980Z,97.92
2022-10-16T21:48:39.326Z,97.71
2022-10-16T21:51:06.225Z,97.90
2022-10-16T21:53:32.524Z,98.09
2022-10-16T21:58:25.159Z,98.39
2022-10-16T22:00:51.511Z,98.38
2022-10-16T22:03:17.830Z,98.47
2022-10-16T22:05:44.157Z,98.73
2022-10-16T22:08:10.487Z,98.60
2022-10-16T22:10:36.850Z,98.68
2022-10-16T22:15:29.531Z,98.58
2022-10-16T22:20:22.105Z,98.83
2022-10-16T22:25:14.682Z,98.86
2022-10-16T22:32:34.481Z,98.81
2022-10-16T22:35:00.781Z,98.97
2022-10-16T22:37:27.287Z,98.99
2022-10-16T22:39:55.762Z,99.09
2022-10-16T22:42:24.315Z,99.10
2022-10-16T22:47:17.144Z,99.18
2022-10-16T22:49:43.472Z,99.42
2022-10-16T22:52:10.139Z,99.54
2022-10-16T22:54:36.582Z,99.53
2022-10-16T22:57:02.989Z,99.50
2022-10-16T22:59:29.298Z,99.60
2022-10-16T23:01:55.649Z,99.98
2022-10-16T23:04:21.990Z,100.00
2022-10-16T23:06:48.370Z,100.00
2022-10-16T23:09:14.706Z,100.00
2022-10-16T23:11:41.026Z,100.00
2022-10-16T23:14:07.372Z,100.00
2022-10-16T23:21:26.891Z,100.00
2022-10-16T23:23:54.312Z,100.00
2022-10-16T23:26:24.175Z,100.00
2022-10-16T23:31:22.066Z,100.00
2022-10-16T23:36:17.886Z,100.00
2022-10-16T23:38:44.850Z,100.00
2022-10-16T23:41:12.133Z,100.00
2022-10-16T23:43:39.015Z,100.00
2022-10-16T23:46:06.925Z,100.00
2022-10-16T23:48:33.320Z,100.00
2022-10-16T23:55:53.053Z,100.00
